createdAt,value
2019-03-05T00:01:27.421Z,4.80
2019-03-05T00:03:55.833Z,4.80
2019-03-05T00:08:52.312Z,4.80
2019-03-05T00:11:20.706Z,4.80
2019-03-05T00:13:49.109Z,4.70
2019-03-05T00:16:17.507Z,4.80
2019-03-05T00:18:45.912Z,4.80
2019-03-05T00:21:33.652Z,4.80
2019-03-05T00:24:38.620Z,4.80
2019-03-05T00:27:07.020Z,4.80
2019-03-05T00:29:50.323Z,4.70
2019-03-05T00:32:18.712Z,4.70
2019-03-05T00:35:09.680Z,4.60
2019-03-05T00:37:41.165Z,4.60
2019-03-05T00:40:21.477Z,4.60
2019-03-05T00:43:10.810Z,4.60
2019-03-05T00:45:48.114Z,4.60
2019-03-05T00:48:25.502Z,4.60
2019-03-05T00:51:24.996Z,4.60
2019-03-05T00:54:01.416Z,4.50
2019-03-05T00:56:44.383Z,4.50
2019-03-05T00:59:34.818Z,4.50
2019-03-05T01:04:38.652Z,4.40
2019-03-05T01:07:07.584Z,4.40
2019-03-05T01:09:36.003Z,4.40
2019-03-05T01:12:05.922Z,4.40
2019-03-05T01:14:35.253Z,4.40
2019-03-05T01:17:03.907Z,4.40
2019-03-05T01:19:32.327Z,4.40
2019-03-05T01:22:00.711Z,4.40
2019-03-05T01:26:57.255Z,4.40
2019-03-05T01:34:53.220Z,4.30
2019-03-05T01:37:21.688Z,4.30
2019-03-05T01:42:28.892Z,4.20
2019-03-05T01:44:57.296Z,4.20
2019-03-05T01:47:25.704Z,4.20
2019-03-05T01:49:54.100Z,4.30
2019-03-05T01:52:22.496Z,4.20
2019-03-05T01:55:04.264Z,4.20
2019-03-05T01:57:32.642Z,4.20
2019-03-05T02:00:01.075Z,4.20
2019-03-05T02:02:29.460Z,4.20
2019-03-05T02:07:25.925Z,4.20
2019-03-05T02:09:54.356Z,4.10
2019-03-05T02:14:50.891Z,4.10
2019-03-05T02:17:19.296Z,4.10
2019-03-05T02:19:47.694Z,4.10
2019-03-05T02:22:25.451Z,4.10
2019-03-05T02:25:02.711Z,4.10
2019-03-05T02:28:08.919Z,4.10
2019-03-05T02:34:06.685Z,4.10
2019-03-05T02:36:54.373Z,4.10
2019-03-05T02:39:31.951Z,4.10
2019-03-05T02:42:21.712Z,4.10
2019-03-05T02:45:14.036Z,4.20
2019-03-05T02:47:48.196Z,4.30
2019-03-05T02:50:40.357Z,4.30
2019-03-05T02:53:37.211Z,4.50
2019-03-05T02:56:42.923Z,4.50
2019-03-05T02:59:10.287Z,4.60
2019-03-05T03:01:40.348Z,4.60
2019-03-05T03:04:10.374Z,4.60
2019-03-05T03:06:39.358Z,4.70
2019-03-05T03:09:26.031Z,4.70
2019-03-05T03:11:54.429Z,4.70
2019-03-05T03:14:22.860Z,4.80
2019-03-05T03:16:51.332Z,4.80
2019-03-05T03:19:19.717Z,4.70
2019-03-05T03:22:07.485Z,4.70
2019-03-05T03:27:03.981Z,4.50
2019-03-05T03:29:32.382Z,4.50
2019-03-05T03:32:00.804Z,4.50
2019-03-05T03:34:29.190Z,4.50
2019-03-05T03:37:16.936Z,4.40
2019-03-05T03:39:45.356Z,4.40
2019-03-05T03:42:13.749Z,4.40
2019-03-05T03:44:42.149Z,4.30
2019-03-05T03:47:29.901Z,4.20
2019-03-05T03:49:58.367Z,4.30
2019-03-05T03:52:26.785Z,4.30
2019-03-05T03:54:55.186Z,4.30
2019-03-05T03:57:23.584Z,4.30
2019-03-05T03:59:51.989Z,4.40
2019-03-05T04:02:20.418Z,4.40
2019-03-05T04:04:48.879Z,4.40
2019-03-05T04:14:41.499Z,4.50
2019-03-05T04:17:09.920Z,4.50
2019-03-05T04:19:38.353Z,4.60
2019-03-05T04:22:06.752Z,4.70
2019-03-05T04:24:35.164Z,4.70
2019-03-05T04:29:31.652Z,4.70
2019-03-05T04:32:00.045Z,4.70
2019-03-05T04:34:28.465Z,4.70
2019-03-05T04:36:59.258Z,4.80
2019-03-05T04:39:27.707Z,4.80
2019-03-05T04:41:56.103Z,4.90
2019-03-05T04:46:54.216Z,4.90
2019-03-05T04:49:26.500Z,4.90
2019-03-05T04:51:56.016Z,4.90
2019-03-05T04:54:24.423Z,4.90
2019-03-05T04:56:52.816Z,5.00
2019-03-05T04:59:21.233Z,5.00
2019-03-05T05:04:17.713Z,5.10
2019-03-05T05:06:46.102Z,5.10
2019-03-05T05:09:14.531Z,5.10
2019-03-05T05:11:42.948Z,5.10
2019-03-05T05:14:11.350Z,5.10
2019-03-05T05:16:39.734Z,5.10
2019-03-05T05:19:08.136Z,5.10
2019-03-05T05:21:36.536Z,5.10
2019-03-05T05:24:04.948Z,5.00
2019-03-05T05:29:01.740Z,4.90
2019-03-05T05:31:30.152Z,4.90
2019-03-05T05:33:58.550Z,4.90
2019-03-05T05:36:26.961Z,4.90
2019-03-05T05:38:55.355Z,4.90
2019-03-05T05:41:23.767Z,4.90
2019-03-05T05:43:52.172Z,4.90
2019-03-05T05:46:20.573Z,4.80
2019-03-05T05:48:48.986Z,4.80
2019-03-05T05:51:17.395Z,4.80
2019-03-05T05:56:13.891Z,4.80
2019-03-05T05:58:42.289Z,4.80
2019-03-05T06:01:11.873Z,4.80
2019-03-05T06:03:40.267Z,4.80
2019-03-05T06:06:08.667Z,4.80
2019-03-05T06:08:37.070Z,4.80
2019-03-05T06:11:05.661Z,4.90
2019-03-05T06:13:34.068Z,5.00
2019-03-05T06:16:02.469Z,5.00
2019-03-05T06:18:30.900Z,5.10
2019-03-05T06:20:59.390Z,5.10
2019-03-05T06:23:27.770Z,5.10
2019-03-05T06:25:56.179Z,5.10
2019-03-05T06:33:20.732Z,5.10
2019-03-05T06:38:17.212Z,5.20
2019-03-05T06:43:13.692Z,5.30
2019-03-05T06:45:42.112Z,5.30
2019-03-05T06:48:10.516Z,5.40
2019-03-05T06:50:38.923Z,5.40
2019-03-05T06:53:07.337Z,5.50
2019-03-05T06:55:35.729Z,5.40
2019-03-05T06:58:04.217Z,5.40
2019-03-05T07:00:41.024Z,5.40
2019-03-05T07:03:12.078Z,5.60
2019-03-05T07:06:16.901Z,5.80
2019-03-05T07:08:57.272Z,6.00
2019-03-05T07:11:46.552Z,6.30
2019-03-05T07:14:33.159Z,6.90
2019-03-05T07:17:27.173Z,7.50
2019-03-05T07:20:16.519Z,8.30
2019-03-05T07:23:02.962Z,8.80
2019-03-05T07:25:31.400Z,9.10
2019-03-05T07:27:59.811Z,9.30
2019-03-05T07:30:28.430Z,9.50
2019-03-05T07:32:56.835Z,9.60
2019-03-05T07:35:25.704Z,9.60
2019-03-05T07:37:54.115Z,9.60
2019-03-05T07:40:22.521Z,9.80
2019-03-05T07:45:36.708Z,10.00
2019-03-05T07:48:05.125Z,9.70
2019-03-05T07:50:33.588Z,9.40
2019-03-05T07:53:02.014Z,8.90
2019-03-05T07:55:30.407Z,8.50
2019-03-05T07:57:58.833Z,8.40
2019-03-05T08:00:27.233Z,8.40
2019-03-05T08:02:55.648Z,8.80
2019-03-05T08:05:24.049Z,9.00
2019-03-05T08:07:52.486Z,9.10
2019-03-05T08:10:23.749Z,9.30
2019-03-05T08:13:03.960Z,9.40
2019-03-05T08:15:49.130Z,9.50
2019-03-05T08:18:17.537Z,9.70
2019-03-05T08:23:14.342Z,10.20
2019-03-05T08:25:42.752Z,10.10
2019-03-05T08:30:39.312Z,9.40
2019-03-05T08:33:07.719Z,9.00
2019-03-05T08:35:36.127Z,8.80
2019-03-05T08:40:32.679Z,8.30
2019-03-05T08:43:01.076Z,8.50
2019-03-05T08:45:29.880Z,8.60
2019-03-05T08:47:58.383Z,9.10
2019-03-05T08:50:26.805Z,9.70
2019-03-05T08:55:23.305Z,10.60
2019-03-05T08:57:51.709Z,11.00
2019-03-05T09:00:21.356Z,11.40
2019-03-05T09:02:49.769Z,11.70
2019-03-05T09:05:19.144Z,11.90
2019-03-05T09:07:47.669Z,11.50
2019-03-05T09:10:21.559Z,11.10
2019-03-05T09:12:49.952Z,10.80
2019-03-05T09:15:19.601Z,10.90
2019-03-05T09:17:48.268Z,11.20
2019-03-05T09:20:20.027Z,11.90
2019-03-05T09:22:48.808Z,12.40
2019-03-05T09:25:18.648Z,12.50
2019-03-05T09:27:47.053Z,12.20
2019-03-05T09:30:20.488Z,11.80
2019-03-05T09:32:49.073Z,11.60
2019-03-05T09:37:46.571Z,11.80
2019-03-05T09:40:29.206Z,12.20
2019-03-05T09:42:57.664Z,13.00
2019-03-05T09:45:28.177Z,13.40
2019-03-05T09:47:56.744Z,13.50
2019-03-05T09:50:25.169Z,13.60
2019-03-05T09:52:55.230Z,13.60
2019-03-05T09:55:29.423Z,13.40
2019-03-05T09:58:07.616Z,13.00
2019-03-05T10:00:29.369Z,12.90
2019-03-05T10:02:57.780Z,13.20
2019-03-05T10:05:26.209Z,13.20
2019-03-05T10:07:54.613Z,12.90
2019-03-05T10:10:30.293Z,12.80
2019-03-05T10:13:03.741Z,13.30
2019-03-05T10:17:57.501Z,14.60
2019-03-05T10:20:30.917Z,15.20
2019-03-05T10:22:59.315Z,15.30
2019-03-05T10:25:28.272Z,15.50
2019-03-05T10:27:57.431Z,15.50
2019-03-05T10:30:31.176Z,15.60
2019-03-05T10:33:02.062Z,16.00
2019-03-05T10:38:00.705Z,15.80
2019-03-05T10:40:34.510Z,15.90
2019-03-05T10:43:08.881Z,16.20
2019-03-05T10:45:35.868Z,16.50
2019-03-05T10:48:04.826Z,16.60
2019-03-05T10:53:01.441Z,16.20
2019-03-05T10:55:30.000Z,15.90
2019-03-05T10:57:58.405Z,15.60
2019-03-05T11:00:36.177Z,14.90
2019-03-05T11:03:04.763Z,14.30
2019-03-05T11:05:53.005Z,14.20
2019-03-05T11:08:24.600Z,13.90
2019-03-05T11:10:54.019Z,13.60
2019-03-05T11:13:22.488Z,13.40
2019-03-05T11:16:01.548Z,13.10
2019-03-05T11:18:30.243Z,12.90
2019-03-05T11:23:26.951Z,12.70
2019-03-05T11:25:55.450Z,12.70
2019-03-05T11:28:23.829Z,12.60
2019-03-05T11:30:52.252Z,12.50
2019-03-05T11:33:21.293Z,12.40
2019-03-05T11:38:18.023Z,12.20
2019-03-05T11:43:17.325Z,12.00
2019-03-05T11:45:46.067Z,12.00
2019-03-05T11:50:43.716Z,12.40
2019-03-05T11:53:12.380Z,12.50
2019-03-05T11:55:40.959Z,12.20
2019-03-05T11:58:09.385Z,12.00
2019-03-05T12:00:42.384Z,11.70
2019-03-05T12:03:10.862Z,11.60
2019-03-05T12:05:39.399Z,11.50
2019-03-05T12:08:07.887Z,11.60
2019-03-05T12:10:36.369Z,11.80
2019-03-05T12:13:05.312Z,11.90
2019-03-05T12:15:36.791Z,12.00
2019-03-05T12:18:05.369Z,12.00
2019-03-05T12:20:33.776Z,12.00
2019-03-05T12:23:02.494Z,12.00
2019-03-05T12:25:31.044Z,12.00
2019-03-05T12:28:09.400Z,12.00
2019-03-05T12:30:31.220Z,12.10
2019-03-05T12:32:59.900Z,12.00
2019-03-05T12:35:28.302Z,11.80
2019-03-05T12:37:56.718Z,11.90
2019-03-05T12:40:26.559Z,12.10
2019-03-05T12:42:55.617Z,12.30
2019-03-05T12:45:24.952Z,12.10
2019-03-05T12:47:53.540Z,11.90
2019-03-05T12:50:29.169Z,11.80
2019-03-05T12:52:58.134Z,11.80
2019-03-05T12:55:26.533Z,11.70
2019-03-05T12:57:54.939Z,11.60
2019-03-05T13:00:26.154Z,11.40
2019-03-05T13:03:00.091Z,11.50
2019-03-05T13:05:28.570Z,11.60
2019-03-05T13:07:57.817Z,11.60
2019-03-05T13:10:27.692Z,11.60
2019-03-05T13:12:56.120Z,11.60
2019-03-05T13:15:27.337Z,11.60
2019-03-05T13:17:55.923Z,11.60
2019-03-05T13:20:26.218Z,11.70
2019-03-05T13:22:54.804Z,11.60
2019-03-05T13:25:24.298Z,11.60
2019-03-05T13:30:33.780Z,11.40
2019-03-05T13:33:02.579Z,11.20
2019-03-05T13:35:32.183Z,11.10
2019-03-05T13:38:11.734Z,11.10
2019-03-05T13:40:40.776Z,11.10
2019-03-05T13:43:09.679Z,11.10
2019-03-05T13:45:38.228Z,11.10
2019-03-05T13:48:28.074Z,11.10
2019-03-05T13:51:24.185Z,11.10
2019-03-05T13:54:15.408Z,11.20
2019-03-05T13:56:52.806Z,11.20
2019-03-05T14:00:02.926Z,11.20
2019-03-05T14:02:33.046Z,11.10
2019-03-05T14:05:19.354Z,11.20
2019-03-05T14:07:50.835Z,11.20
2019-03-05T14:10:19.398Z,11.10
2019-03-05T14:12:47.800Z,11.10
2019-03-05T14:15:16.820Z,11.00
2019-03-05T14:17:45.269Z,10.90
2019-03-05T14:20:16.004Z,10.80
2019-03-05T14:22:44.515Z,10.70
2019-03-05T14:25:15.303Z,10.70
2019-03-05T14:30:15.197Z,10.60
2019-03-05T14:32:43.665Z,10.60
2019-03-05T14:35:13.688Z,10.60
2019-03-05T14:37:42.151Z,10.60
2019-03-05T14:40:24.595Z,10.60
2019-03-05T14:42:49.527Z,10.40
2019-03-05T14:45:23.785Z,10.30
2019-03-05T14:50:20.804Z,10.20
2019-03-05T14:52:49.238Z,10.30
2019-03-05T14:55:17.911Z,10.20
2019-03-05T14:57:46.375Z,10.20
2019-03-05T15:00:19.975Z,10.20
2019-03-05T15:02:48.503Z,10.20
2019-03-05T15:05:17.011Z,10.10
2019-03-05T15:10:34.673Z,10.10
2019-03-05T15:13:14.961Z,10.20
2019-03-05T15:15:33.348Z,10.20
2019-03-05T15:20:29.893Z,10.20
2019-03-05T15:22:58.442Z,10.20
2019-03-05T15:25:26.884Z,10.10
2019-03-05T15:27:55.340Z,10.00
2019-03-05T15:35:30.957Z,9.90
2019-03-05T15:37:59.377Z,9.90
2019-03-05T15:42:56.109Z,9.90
2019-03-05T15:45:24.618Z,9.70
2019-03-05T15:47:53.081Z,9.70
2019-03-05T15:50:26.457Z,9.60
2019-03-05T15:52:54.959Z,9.50
2019-03-05T15:57:52.052Z,9.30
2019-03-05T16:00:28.108Z,9.20
2019-03-05T16:02:56.518Z,9.00
2019-03-05T16:07:53.263Z,8.80
2019-03-05T16:10:21.684Z,8.80
2019-03-05T16:12:50.070Z,8.80
2019-03-05T16:15:18.930Z,8.80
2019-03-05T16:17:47.525Z,8.80
2019-03-05T16:22:51.102Z,8.80
2019-03-05T16:25:22.344Z,8.80
2019-03-05T16:30:42.679Z,8.80
2019-03-05T16:33:18.649Z,8.70
2019-03-05T16:35:54.884Z,8.60
2019-03-05T16:38:24.927Z,8.60
2019-03-05T16:43:30.160Z,8.50
2019-03-05T16:48:55.752Z,8.40
2019-03-05T16:51:26.623Z,8.40
2019-03-05T16:54:16.173Z,8.30
2019-03-05T16:56:46.294Z,8.30
2019-03-05T16:59:16.329Z,8.20
2019-03-05T17:01:46.554Z,8.30
2019-03-05T17:04:32.896Z,8.30
2019-03-05T17:07:02.971Z,8.30
2019-03-05T17:12:07.129Z,8.20
2019-03-05T17:14:35.536Z,8.10
2019-03-05T17:19:32.203Z,7.90
2019-03-05T17:22:00.986Z,7.80
2019-03-05T17:24:29.376Z,7.80
2019-03-05T17:26:57.853Z,7.80
2019-03-05T17:29:26.255Z,7.80
2019-03-05T17:34:42.450Z,7.90
2019-03-05T17:37:11.113Z,7.90
2019-03-05T17:39:39.534Z,7.90
2019-03-05T17:42:07.932Z,7.90
2019-03-05T17:44:36.326Z,7.90
2019-03-05T17:47:04.815Z,7.90
2019-03-05T17:49:33.200Z,7.80
2019-03-05T17:54:29.724Z,7.70
2019-03-05T17:59:26.297Z,7.80
2019-03-05T18:01:54.688Z,7.80
2019-03-05T18:04:23.099Z,7.80
2019-03-05T18:06:51.497Z,7.80
2019-03-05T18:09:19.913Z,7.80
2019-03-05T18:11:48.314Z,7.80
2019-03-05T18:14:16.712Z,7.80
2019-03-05T18:16:45.119Z,7.80
2019-03-05T18:19:13.528Z,7.80
2019-03-05T18:21:41.993Z,7.80
2019-03-05T18:24:10.399Z,7.80
2019-03-05T18:26:38.799Z,7.80
2019-03-05T18:29:07.209Z,7.70
2019-03-05T18:31:35.609Z,7.60
2019-03-05T18:34:04.386Z,7.60
2019-03-05T18:36:32.777Z,7.60
2019-03-05T18:39:01.187Z,7.50
2019-03-05T18:41:29.652Z,7.40
2019-03-05T18:43:58.069Z,7.40
2019-03-05T18:46:26.842Z,7.40
2019-03-05T18:51:23.327Z,7.40
2019-03-05T18:53:51.729Z,7.40
2019-03-05T18:56:20.130Z,7.50
2019-03-05T18:58:48.532Z,7.40
2019-03-05T19:01:16.933Z,7.40
2019-03-05T19:06:13.414Z,7.40
2019-03-05T19:08:41.820Z,7.40
2019-03-05T19:13:38.294Z,7.50
2019-03-05T19:18:34.933Z,7.50
2019-03-05T19:21:03.325Z,7.50
2019-03-05T19:23:31.743Z,7.40
2019-03-05T19:26:00.231Z,7.40
2019-03-05T19:28:28.634Z,7.30
2019-03-05T19:33:25.123Z,7.30
2019-03-05T19:35:53.535Z,7.10
2019-03-05T19:38:21.929Z,7.10
2019-03-05T19:40:50.342Z,7.20
2019-03-05T19:43:18.760Z,7.10
2019-03-05T19:45:47.164Z,7.10
2019-03-05T19:48:15.568Z,7.10
2019-03-05T19:50:44.351Z,7.00
2019-03-05T19:53:12.764Z,7.00
2019-03-05T19:55:41.176Z,6.90
2019-03-05T19:58:11.281Z,6.80
2019-03-05T20:00:47.045Z,6.80
2019-03-05T20:05:43.669Z,6.70
2019-03-05T20:08:12.067Z,6.60
2019-03-05T20:10:40.537Z,6.60
2019-03-05T20:13:08.931Z,6.60
2019-03-05T20:15:37.406Z,6.60
2019-03-05T20:18:07.411Z,6.50
2019-03-05T20:20:36.237Z,6.50
2019-03-05T20:23:05.197Z,6.50
2019-03-05T20:25:33.601Z,6.50
2019-03-05T20:28:02.071Z,6.40
2019-03-05T20:30:30.470Z,6.40
2019-03-05T20:32:58.864Z,6.50
2019-03-05T20:35:27.269Z,6.50
2019-03-05T20:37:55.663Z,6.40
2019-03-05T20:40:26.316Z,6.40
2019-03-05T20:42:54.708Z,6.40
2019-03-05T20:47:58.437Z,6.40
2019-03-05T20:55:39.140Z,6.40
2019-03-05T20:58:07.597Z,6.40
2019-03-05T21:03:08.820Z,6.40
2019-03-05T21:05:42.069Z,6.50
2019-03-05T21:08:10.470Z,6.50
2019-03-05T21:10:38.916Z,6.40
2019-03-05T21:13:07.857Z,6.40
2019-03-05T21:15:37.195Z,6.40
2019-03-05T21:18:10.607Z,6.50
2019-03-05T21:20:39.263Z,6.40
2019-03-05T21:23:07.978Z,6.40
2019-03-05T21:25:36.445Z,6.40
2019-03-05T21:28:04.991Z,6.30
2019-03-05T21:30:33.525Z,6.30
2019-03-05T21:33:01.936Z,6.40
2019-03-05T21:37:58.409Z,6.40
2019-03-05T21:40:30.598Z,6.40
2019-03-05T21:42:59.001Z,6.30
2019-03-05T21:45:30.485Z,6.30
2019-03-05T21:48:00.472Z,6.30
2019-03-05T21:50:28.874Z,6.30
2019-03-05T21:52:57.280Z,6.30
2019-03-05T21:55:25.678Z,6.20
2019-03-05T21:57:54.103Z,6.10
2019-03-05T22:00:32.719Z,6.20
2019-03-05T22:03:02.167Z,6.20
2019-03-05T22:05:31.109Z,6.20
2019-03-05T22:07:59.589Z,6.20
2019-03-05T22:10:28.061Z,6.20
2019-03-05T22:12:56.469Z,6.30
2019-03-05T22:15:29.777Z,6.20
2019-03-05T22:17:58.186Z,6.20
2019-03-05T22:20:26.686Z,6.00
2019-03-05T22:22:55.131Z,5.90
2019-03-05T22:25:24.735Z,5.90
2019-03-05T22:27:53.212Z,5.70
2019-03-05T22:30:33.039Z,5.70
2019-03-05T22:33:01.440Z,5.70
2019-03-05T22:35:29.837Z,5.70
2019-03-05T22:37:58.242Z,5.70
2019-03-05T22:40:45.977Z,5.70
2019-03-05T22:43:14.380Z,5.70
2019-03-05T22:45:42.767Z,5.70
2019-03-05T22:48:11.177Z,5.50
2019-03-05T22:50:39.571Z,5.50
2019-03-05T22:53:08.009Z,5.50
2019-03-05T22:55:36.401Z,5.60
2019-03-05T22:58:04.804Z,5.70
2019-03-05T23:00:43.716Z,5.60
2019-03-05T23:03:17.973Z,5.60
2019-03-05T23:08:33.845Z,5.60
2019-03-05T23:11:02.344Z,5.50
2019-03-05T23:15:59.473Z,5.20
2019-03-05T23:18:27.890Z,5.20
2019-03-05T23:20:56.443Z,5.30
2019-03-05T23:23:24.965Z,5.40
2019-03-05T23:25:53.386Z,5.40
2019-03-05T23:28:22.266Z,5.40
2019-03-05T23:30:50.929Z,5.30
2019-03-05T23:38:15.545Z,5.20
2019-03-05T23:40:43.953Z,5.00
2019-03-05T23:43:12.429Z,4.90
2019-03-05T23:48:08.972Z,4.70
2019-03-05T23:50:37.376Z,4.60
2019-03-05T23:55:33.848Z,4.70
2019-03-05T23:58:02.250Z,4.60
